sensor_id;sensor_type;location;lat;lon;timestamp;pressure;altitude;pressure_sealevel;temperature;humidity
59487;BME280;45298;54.918;73.504;2024-01-06T00:01:32;99745.84;;;-11.62;89.36
59487;BME280;45298;54.918;73.504;2024-01-06T00:04:01;99754.19;;;-11.70;90.13
59487;BME280;45298;54.918;73.504;2024-01-06T00:06:30;99743.81;;;-11.76;90.69
59487;BME280;45298;54.918;73.504;2024-01-06T00:08:59;99751.44;;;-11.77;90.47
59487;BME280;45298;54.918;73.504;2024-01-06T00:11:28;99744.44;;;-11.85;90.16
59487;BME280;45298;54.918;73.504;2024-01-06T00:13:56;99751.09;;;-11.93;89.99
59487;BME280;45298;54.918;73.504;2024-01-06T00:16:25;99749.28;;;-11.97;89.38
59487;BME280;45298;54.918;73.504;2024-01-06T00:18:56;99728.34;;;-12.19;89.85
59487;BME280;45298;54.918;73.504;2024-01-06T00:21:25;99782.34;;;-12.06;88.76
59487;BME280;45298;54.918;73.504;2024-01-06T00:23:54;99777.91;;;-12.13;89.92
59487;BME280;45298;54.918;73.504;2024-01-06T00:26:24;99774.28;;;-12.22;88.53
59487;BME280;45298;54.918;73.504;2024-01-06T00:28:53;99766.09;;;-12.42;89.44
59487;BME280;45298;54.918;73.504;2024-01-06T00:31:22;99775.97;;;-12.54;89.21
59487;BME280;45298;54.918;73.504;2024-01-06T00:33:51;99784.03;;;-12.72;87.45
59487;BME280;45298;54.918;73.504;2024-01-06T00:36:20;99783.59;;;-12.88;87.44
59487;BME280;45298;54.918;73.504;2024-01-06T00:38:49;99799.34;;;-13.03;87.04
59487;BME280;45298;54.918;73.504;2024-01-06T00:41:18;99798.06;;;-13.17;87.58
59487;BME280;45298;54.918;73.504;2024-01-06T00:43:47;99800.19;;;-13.31;87.74
59487;BME280;45298;54.918;73.504;2024-01-06T00:46:16;99816.94;;;-13.40;87.88
59487;BME280;45298;54.918;73.504;2024-01-06T00:48:45;99806.41;;;-13.52;87.81
59487;BME280;45298;54.918;73.504;2024-01-06T00:51:14;99813.84;;;-13.58;87.96
59487;BME280;45298;54.918;73.504;2024-01-06T00:53:43;99812.88;;;-13.63;87.50
59487;BME280;45298;54.918;73.504;2024-01-06T00:56:14;99824.72;;;-13.65;88.06
59487;BME280;45298;54.918;73.504;2024-01-06T00:58:43;99826.94;;;-13.75;88.25
59487;BME280;45298;54.918;73.504;2024-01-06T01:01:12;99827.47;;;-13.85;87.84
59487;BME280;45298;54.918;73.504;2024-01-06T01:03:41;99841.69;;;-13.92;87.79
59487;BME280;45298;54.918;73.504;2024-01-06T01:06:10;99836.88;;;-14.08;87.27
59487;BME280;45298;54.918;73.504;2024-01-06T01:08:39;99834.78;;;-14.20;87.66
59487;BME280;45298;54.918;73.504;2024-01-06T01:11:08;99854.44;;;-14.18;87.40
59487;BME280;45298;54.918;73.504;2024-01-06T01:13:37;99849.88;;;-14.26;87.55
59487;BME280;45298;54.918;73.504;2024-01-06T01:16:07;99846.88;;;-14.39;87.61
59487;BME280;45298;54.918;73.504;2024-01-06T01:18:36;99853.56;;;-14.43;88.04
59487;BME280;45298;54.918;73.504;2024-01-06T01:21:06;99867.88;;;-14.46;87.83
59487;BME280;45298;54.918;73.504;2024-01-06T01:23:34;99868.13;;;-14.63;87.18
59487;BME280;45298;54.918;73.504;2024-01-06T01:26:03;99863.66;;;-14.70;86.71
59487;BME280;45298;54.918;73.504;2024-01-06T01:28:32;99858.13;;;-14.82;86.38
59487;BME280;45298;54.918;73.504;2024-01-06T01:31:02;99880.16;;;-14.83;86.47
59487;BME280;45298;54.918;73.504;2024-01-06T01:33:32;99885.19;;;-14.84;87.14
59487;BME280;45298;54.918;73.504;2024-01-06T01:36:01;99879.97;;;-14.87;87.25
59487;BME280;45298;54.918;73.504;2024-01-06T01:38:30;99889.91;;;-14.94;87.11
59487;BME280;45298;54.918;73.504;2024-01-06T01:40:59;99886.97;;;-15.05;86.58
59487;BME280;45298;54.918;73.504;2024-01-06T01:43:28;99891.06;;;-15.08;86.14
59487;BME280;45298;54.918;73.504;2024-01-06T01:45:57;99900.63;;;-15.02;87.25
59487;BME280;45298;54.918;73.504;2024-01-06T01:48:27;99862.38;;;-15.27;86.92
59487;BME280;45298;54.918;73.504;2024-01-06T01:50:56;99898.47;;;-15.14;87.86
59487;BME280;45298;54.918;73.504;2024-01-06T01:53:26;99932.34;;;-15.15;86.99
59487;BME280;45298;54.918;73.504;2024-01-06T01:55:57;99925.34;;;-15.21;87.15
59487;BME280;45298;54.918;73.504;2024-01-06T01:58:26;99927.88;;;-15.21;86.69
59487;BME280;45298;54.918;73.504;2024-01-06T02:00:55;99933.59;;;-15.27;86.42
59487;BME280;45298;54.918;73.504;2024-01-06T02:03:25;99937.75;;;-15.29;86.65
59487;BME280;45298;54.918;73.504;2024-01-06T02:05:55;99935.84;;;-15.35;86.64
59487;BME280;45298;54.918;73.504;2024-01-06T02:08:24;99935.53;;;-15.42;86.60
59487;BME280;45298;54.918;73.504;2024-01-06T02:10:57;99944.66;;;-15.47;85.98
59487;BME280;45298;54.918;73.504;2024-01-06T02:13:35;99964.84;;;-15.51;86.42
59487;BME280;45298;54.918;73.504;2024-01-06T02:16:05;99958.13;;;-15.50;86.37
59487;BME280;45298;54.918;73.504;2024-01-06T02:18:34;99960.22;;;-15.61;85.87
59487;BME280;45298;54.918;73.504;2024-01-06T02:21:03;99964.41;;;-15.61;86.26
59487;BME280;45298;54.918;73.504;2024-01-06T02:23:36;99986.50;;;-15.60;86.47
59487;BME280;45298;54.918;73.504;2024-01-06T02:26:05;99992.31;;;-15.63;86.21
59487;BME280;45298;54.918;73.504;2024-01-06T02:28:34;99982.56;;;-15.73;86.55
59487;BME280;45298;54.918;73.504;2024-01-06T02:31:05;99999.50;;;-15.74;86.39
59487;BME280;45298;54.918;73.504;2024-01-06T02:33:34;99988.00;;;-15.85;86.66
59487;BME280;45298;54.918;73.504;2024-01-06T02:36:04;100004.31;;;-15.80;86.49
59487;BME280;45298;54.918;73.504;2024-01-06T02:38:33;99994.69;;;-15.87;86.09
59487;BME280;45298;54.918;73.504;2024-01-06T02:41:02;100009.19;;;-15.85;87.33
59487;BME280;45298;54.918;73.504;2024-01-06T02:43:31;99985.81;;;-15.97;86.88
59487;BME280;45298;54.918;73.504;2024-01-06T02:46:00;100000.25;;;-15.96;85.71
59487;BME280;45298;54.918;73.504;2024-01-06T02:48:29;100008.41;;;-16.03;85.90
59487;BME280;45298;54.918;73.504;2024-01-06T02:50:59;100012.84;;;-15.99;86.08
59487;BME280;45298;54.918;73.504;2024-01-06T02:53:28;100007.34;;;-16.08;85.27
59487;BME280;45298;54.918;73.504;2024-01-06T02:55:57;99997.50;;;-16.20;86.29
59487;BME280;45298;54.918;73.504;2024-01-06T02:58:25;100009.25;;;-16.22;85.94
59487;BME280;45298;54.918;73.504;2024-01-06T03:00:55;100001.72;;;-16.21;86.19
59487;BME280;45298;54.918;73.504;2024-01-06T03:03:27;99985.78;;;-16.36;85.77
59487;BME280;45298;54.918;73.504;2024-01-06T03:05:56;100010.06;;;-16.23;85.57
59487;BME280;45298;54.918;73.504;2024-01-06T03:08:25;100026.44;;;-16.17;86.07
59487;BME280;45298;54.918;73.504;2024-01-06T03:10:54;100034.81;;;-16.19;85.29
59487;BME280;45298;54.918;73.504;2024-01-06T03:13:22;100025.09;;;-16.28;86.67
59487;BME280;45298;54.918;73.504;2024-01-06T03:15:51;100028.72;;;-16.23;85.42
59487;BME280;45298;54.918;73.504;2024-01-06T03:18:20;100036.19;;;-16.26;85.74
59487;BME280;45298;54.918;73.504;2024-01-06T03:20:49;100025.59;;;-16.35;86.32
59487;BME280;45298;54.918;73.504;2024-01-06T03:23:21;100049.34;;;-16.35;86.28
59487;BME280;45298;54.918;73.504;2024-01-06T03:25:50;100054.34;;;-16.36;86.48
59487;BME280;45298;54.918;73.504;2024-01-06T03:28:20;100048.34;;;-16.38;85.34
59487;BME280;45298;54.918;73.504;2024-01-06T03:30:49;100043.97;;;-16.41;86.25
59487;BME280;45298;54.918;73.504;2024-01-06T03:33:18;100052.47;;;-16.41;86.38
59487;BME280;45298;54.918;73.504;2024-01-06T03:35:47;100042.22;;;-16.42;85.78
59487;BME280;45298;54.918;73.504;2024-01-06T03:38:16;100055.03;;;-16.41;85.57
59487;BME280;45298;54.918;73.504;2024-01-06T03:40:45;100056.97;;;-16.35;86.45
59487;BME280;45298;54.918;73.504;2024-01-06T03:43:13;100052.25;;;-16.45;86.15
59487;BME280;45298;54.918;73.504;2024-01-06T03:45:42;100064.38;;;-16.39;84.55
59487;BME280;45298;54.918;73.504;2024-01-06T03:48:12;100062.69;;;-16.39;85.84
59487;BME280;45298;54.918;73.504;2024-01-06T03:50:41;100063.50;;;-16.40;85.49
59487;BME280;45298;54.918;73.504;2024-01-06T03:53:10;100067.91;;;-16.36;86.26
59487;BME280;45298;54.918;73.504;2024-01-06T03:55:39;100079.16;;;-16.31;85.82
59487;BME280;45298;54.918;73.504;2024-01-06T03:58:10;100073.75;;;-16.38;86.66
59487;BME280;45298;54.918;73.504;2024-01-06T04:00:39;100072.09;;;-16.36;85.84
59487;BME280;45298;54.918;73.504;2024-01-06T04:03:09;100079.53;;;-16.41;86.09
59487;BME280;45298;54.918;73.504;2024-01-06T04:05:38;100104.63;;;-16.29;86.70
59487;BME280;45298;54.918;73.504;2024-01-06T04:08:07;100100.28;;;-16.32;85.90
59487;BME280;45298;54.918;73.504;2024-01-06T04:10:36;100109.41;;;-16.35;85.05
59487;BME280;45298;54.918;73.504;2024-01-06T04:13:05;100123.03;;;-16.33;86.22
59487;BME280;45298;54.918;73.504;2024-01-06T04:15:34;100110.28;;;-16.35;85.63
59487;BME280;45298;54.918;73.504;2024-01-06T04:18:05;100109.28;;;-16.38;85.79
59487;BME280;45298;54.918;73.504;2024-01-06T04:20:35;100126.53;;;-16.31;85.00
59487;BME280;45298;54.918;73.504;2024-01-06T04:23:05;100129.97;;;-16.31;85.99
59487;BME280;45298;54.918;73.504;2024-01-06T04:25:37;100077.00;;;-16.59;86.05
59487;BME280;45298;54.918;73.504;2024-01-06T04:28:06;100128.28;;;-16.30;86.27
59487;BME280;45298;54.918;73.504;2024-01-06T04:30:36;100144.53;;;-16.27;85.91
59487;BME280;45298;54.918;73.504;2024-01-06T04:33:06;100134.09;;;-16.33;85.82
59487;BME280;45298;54.918;73.504;2024-01-06T04:35:36;100132.50;;;-16.31;86.04
59487;BME280;45298;54.918;73.504;2024-01-06T04:38:05;100147.00;;;-16.28;86.08
59487;BME280;45298;54.918;73.504;2024-01-06T04:40:34;100140.31;;;-16.26;86.28
59487;BME280;45298;54.918;73.504;2024-01-06T04:43:04;100147.16;;;-16.25;86.54
59487;BME280;45298;54.918;73.504;2024-01-06T04:45:34;100146.66;;;-16.18;85.69
59487;BME280;45298;54.918;73.504;2024-01-06T04:48:07;100132.72;;;-16.26;85.68
59487;BME280;45298;54.918;73.504;2024-01-06T04:50:36;100165.34;;;-16.16;85.58
59487;BME280;45298;54.918;73.504;2024-01-06T04:53:06;100153.09;;;-16.24;84.99
59487;BME280;45298;54.918;73.504;2024-01-06T04:55:36;100160.41;;;-16.13;85.09
59487;BME280;45298;54.918;73.504;2024-01-06T04:58:06;100173.28;;;-16.09;84.92
59487;BME280;45298;54.918;73.504;2024-01-06T05:00:34;100173.41;;;-16.06;85.94
59487;BME280;45298;54.918;73.504;2024-01-06T05:03:04;100176.75;;;-16.07;84.47
59487;BME280;45298;54.918;73.504;2024-01-06T05:05:33;100175.81;;;-16.09;84.28
59487;BME280;45298;54.918;73.504;2024-01-06T05:08:03;100178.34;;;-16.09;84.67
59487;BME280;45298;54.918;73.504;2024-01-06T05:10:32;100173.28;;;-16.09;84.57
59487;BME280;45298;54.918;73.504;2024-01-06T05:13:01;100198.34;;;-15.99;85.22
59487;BME280;45298;54.918;73.504;2024-01-06T05:15:30;100174.16;;;-16.09;84.41
59487;BME280;45298;54.918;73.504;2024-01-06T05:17:59;100192.44;;;-15.98;84.57
59487;BME280;45298;54.918;73.504;2024-01-06T05:20:28;100199.69;;;-15.88;85.13
59487;BME280;45298;54.918;73.504;2024-01-06T05:22:57;100186.78;;;-15.92;85.30
59487;BME280;45298;54.918;73.504;2024-01-06T05:25:26;100210.91;;;-15.83;85.39
59487;BME280;45298;54.918;73.504;2024-01-06T05:27:55;100192.88;;;-15.89;84.78
59487;BME280;45298;54.918;73.504;2024-01-06T05:30:24;100227.03;;;-15.82;84.94
59487;BME280;45298;54.918;73.504;2024-01-06T05:32:53;100198.09;;;-15.86;84.12
59487;BME280;45298;54.918;73.504;2024-01-06T05:35:23;100204.44;;;-15.76;84.53
59487;BME280;45298;54.918;73.504;2024-01-06T05:37:52;100198.38;;;-15.80;83.80
59487;BME280;45298;54.918;73.504;2024-01-06T05:40:21;100189.78;;;-15.82;84.31
59487;BME280;45298;54.918;73.504;2024-01-06T05:42:50;100207.34;;;-15.68;84.83
59487;BME280;45298;54.918;73.504;2024-01-06T05:45:21;100202.91;;;-15.72;83.65
59487;BME280;45298;54.918;73.504;2024-01-06T05:47:54;100202.56;;;-15.62;84.76
59487;BME280;45298;54.918;73.504;2024-01-06T05:50:24;100222.94;;;-15.42;83.70
59487;BME280;45298;54.918;73.504;2024-01-06T05:52:52;100229.22;;;-15.34;84.80
59487;BME280;45298;54.918;73.504;2024-01-06T05:55:22;100218.78;;;-15.40;85.00
59487;BME280;45298;54.918;73.504;2024-01-06T05:57:51;100223.03;;;-15.39;83.67
59487;BME280;45298;54.918;73.504;2024-01-06T06:00:21;100243.03;;;-15.29;84.11
59487;BME280;45298;54.918;73.504;2024-01-06T06:02:49;100241.09;;;-15.35;83.26
59487;BME280;45298;54.918;73.504;2024-01-06T06:05:18;100235.19;;;-15.33;83.09
59487;BME280;45298;54.918;73.504;2024-01-06T06:07:48;100240.44;;;-15.30;83.51
59487;BME280;45298;54.918;73.504;2024-01-06T06:10:17;100247.72;;;-15.19;84.72
59487;BME280;45298;54.918;73.504;2024-01-06T06:12:49;100242.88;;;-15.32;82.79
59487;BME280;45298;54.918;73.504;2024-01-06T06:15:21;100237.00;;;-15.31;83.61
59487;BME280;45298;54.918;73.504;2024-01-06T06:17:50;100220.56;;;-15.57;81.70
59487;BME280;45298;54.918;73.504;2024-01-06T06:20:22;100257.84;;;-15.38;82.90
59487;BME280;45298;54.918;73.504;2024-01-06T06:22:50;100255.25;;;-15.40;81.86
59487;BME280;45298;54.918;73.504;2024-01-06T06:25:19;100256.25;;;-15.36;82.39
59487;BME280;45298;54.918;73.504;2024-01-06T06:27:49;100245.03;;;-15.41;82.82
59487;BME280;45298;54.918;73.504;2024-01-06T06:30:18;100252.19;;;-15.32;83.56
59487;BME280;45298;54.918;73.504;2024-01-06T06:32:48;100252.25;;;-15.31;82.09
59487;BME280;45298;54.918;73.504;2024-01-06T06:35:18;100211.53;;;-15.51;81.42
59487;BME280;45298;54.918;73.504;2024-01-06T06:37:47;100255.81;;;-15.27;82.61
59487;BME280;45298;54.918;73.504;2024-01-06T06:40:16;100261.03;;;-15.24;83.12
59487;BME280;45298;54.918;73.504;2024-01-06T06:42:46;100262.41;;;-15.13;83.38
59487;BME280;45298;54.918;73.504;2024-01-06T06:45:16;100262.00;;;-15.02;82.18
59487;BME280;45298;54.918;73.504;2024-01-06T06:47:45;100264.88;;;-14.95;82.63
59487;BME280;45298;54.918;73.504;2024-01-06T06:50:14;100270.88;;;-14.94;81.71
59487;BME280;45298;54.918;73.504;2024-01-06T06:52:46;100273.59;;;-14.90;82.31
59487;BME280;45298;54.918;73.504;2024-01-06T06:55:16;100275.34;;;-14.89;82.17
59487;BME280;45298;54.918;73.504;2024-01-06T06:57:45;100276.53;;;-15.00;82.39
59487;BME280;45298;54.918;73.504;2024-01-06T07:00:14;100268.34;;;-15.12;80.75
59487;BME280;45298;54.918;73.504;2024-01-06T07:02:45;100282.41;;;-15.21;80.81
59487;BME280;45298;54.918;73.504;2024-01-06T07:05:16;100274.50;;;-15.27;80.80
59487;BME280;45298;54.918;73.504;2024-01-06T07:07:45;100278.50;;;-15.32;81.70
59487;BME280;45298;54.918;73.504;2024-01-06T07:10:15;100285.47;;;-15.28;82.14
59487;BME280;45298;54.918;73.504;2024-01-06T07:12:43;100282.63;;;-15.34;81.10
59487;BME280;45298;54.918;73.504;2024-01-06T07:15:12;100290.41;;;-15.31;81.38
59487;BME280;45298;54.918;73.504;2024-01-06T07:17:42;100278.50;;;-15.32;82.61
59487;BME280;45298;54.918;73.504;2024-01-06T07:20:11;100275.28;;;-15.28;82.64
59487;BME280;45298;54.918;73.504;2024-01-06T07:22:40;100274.50;;;-15.27;81.67
59487;BME280;45298;54.918;73.504;2024-01-06T07:25:09;100288.50;;;-15.17;81.45
59487;BME280;45298;54.918;73.504;2024-01-06T07:27:38;100277.44;;;-15.17;81.78
59487;BME280;45298;54.918;73.504;2024-01-06T07:30:08;100293.16;;;-15.08;80.92
59487;BME280;45298;54.918;73.504;2024-01-06T07:32:37;100186.34;;;-15.64;81.10
59487;BME280;45298;54.918;73.504;2024-01-06T07:35:05;100284.13;;;-15.20;79.99
59487;BME280;45298;54.918;73.504;2024-01-06T07:37:35;100273.09;;;-15.20;81.55
59487;BME280;45298;54.918;73.504;2024-01-06T07:40:05;100290.59;;;-15.08;80.73
59487;BME280;45298;54.918;73.504;2024-01-06T07:42:33;100286.47;;;-15.06;81.16
59487;BME280;45298;54.918;73.504;2024-01-06T07:45:03;100300.47;;;-14.96;80.90
59487;BME280;45298;54.918;73.504;2024-01-06T07:47:32;100284.16;;;-15.00;80.54
59487;BME280;45298;54.918;73.504;2024-01-06T07:50:01;100287.41;;;-15.04;80.08
59487;BME280;45298;54.918;73.504;2024-01-06T07:52:33;100309.75;;;-14.97;80.18
59487;BME280;45298;54.918;73.504;2024-01-06T07:55:02;100311.13;;;-14.85;81.37
59487;BME280;45298;54.918;73.504;2024-01-06T07:57:32;100312.13;;;-14.82;79.82
59487;BME280;45298;54.918;73.504;2024-01-06T08:00:01;100274.53;;;-15.07;80.94
59487;BME280;45298;54.918;73.504;2024-01-06T08:02:39;100307.09;;;-14.80;81.33
59487;BME280;45298;54.918;73.504;2024-01-06T08:05:08;100318.34;;;-14.75;81.65
59487;BME280;45298;54.918;73.504;2024-01-06T08:07:39;100317.66;;;-14.72;81.87
59487;BME280;45298;54.918;73.504;2024-01-06T08:10:08;100315.91;;;-14.74;81.19
59487;BME280;45298;54.918;73.504;2024-01-06T08:12:38;100309.59;;;-14.82;81.23
59487;BME280;45298;54.918;73.504;2024-01-06T08:15:08;100318.69;;;-14.87;80.53
59487;BME280;45298;54.918;73.504;2024-01-06T08:17:37;100308.09;;;-14.96;80.47
59487;BME280;45298;54.918;73.504;2024-01-06T08:20:09;100306.00;;;-15.05;79.76
59487;BME280;45298;54.918;73.504;2024-01-06T08:22:38;100327.44;;;-15.00;80.23
59487;BME280;45298;54.918;73.504;2024-01-06T08:25:07;100322.94;;;-15.06;80.82
59487;BME280;45298;54.918;73.504;2024-01-06T08:27:36;100324.47;;;-15.09;80.86
59487;BME280;45298;54.918;73.504;2024-01-06T08:30:05;100339.97;;;-15.05;81.45
59487;BME280;45298;54.918;73.504;2024-01-06T08:32:37;100342.28;;;-15.09;81.46
59487;BME280;45298;54.918;73.504;2024-01-06T08:35:06;100344.78;;;-15.11;80.85
59487;BME280;45298;54.918;73.504;2024-01-06T08:37:38;100331.69;;;-15.19;81.17
59487;BME280;45298;54.918;73.504;2024-01-06T08:40:07;100335.25;;;-15.15;81.17
59487;BME280;45298;54.918;73.504;2024-01-06T08:42:36;100343.91;;;-15.11;82.24
59487;BME280;45298;54.918;73.504;2024-01-06T08:45:06;100346.16;;;-15.17;81.22
59487;BME280;45298;54.918;73.504;2024-01-06T08:47:36;100359.31;;;-15.08;81.70
59487;BME280;45298;54.918;73.504;2024-01-06T08:50:06;100350.28;;;-15.20;80.73
59487;BME280;45298;54.918;73.504;2024-01-06T08:52:35;100370.94;;;-15.13;79.71
59487;BME280;45298;54.918;73.504;2024-01-06T08:55:07;100359.25;;;-15.28;80.97
59487;BME280;45298;54.918;73.504;2024-01-06T08:57:36;100373.72;;;-15.27;80.59
59487;BME280;45298;54.918;73.504;2024-01-06T09:00:05;100370.06;;;-15.32;80.34
59487;BME280;45298;54.918;73.504;2024-01-06T09:02:41;100365.56;;;-15.38;79.94
59487;BME280;45298;54.918;73.504;2024-01-06T09:05:12;100379.41;;;-15.32;80.39
59487;BME280;45298;54.918;73.504;2024-01-06T09:07:42;100380.25;;;-15.32;80.25
59487;BME280;45298;54.918;73.504;2024-01-06T09:10:11;100381.78;;;-15.36;81.62
59487;BME280;45298;54.918;73.504;2024-01-06T09:12:40;100387.09;;;-15.31;80.76
59487;BME280;45298;54.918;73.504;2024-01-06T09:15:10;100369.25;;;-15.49;80.98
59487;BME280;45298;54.918;73.504;2024-01-06T09:17:40;100383.88;;;-15.45;81.00
59487;BME280;45298;54.918;73.504;2024-01-06T09:20:10;100380.75;;;-15.57;81.36
59487;BME280;45298;54.918;73.504;2024-01-06T09:22:41;100379.28;;;-15.70;79.37
59487;BME280;45298;54.918;73.504;2024-01-06T09:25:10;100391.19;;;-15.69;79.95
59487;BME280;45298;54.918;73.504;2024-01-06T09:27:41;100396.28;;;-15.69;81.02
59487;BME280;45298;54.918;73.504;2024-01-06T09:30:11;100388.34;;;-15.75;80.22
59487;BME280;45298;54.918;73.504;2024-01-06T09:32:42;100399.16;;;-15.80;79.63
59487;BME280;45298;54.918;73.504;2024-01-06T09:35:11;100396.19;;;-15.89;79.84
59487;BME280;45298;54.918;73.504;2024-01-06T09:37:40;100398.66;;;-15.90;80.61
59487;BME280;45298;54.918;73.504;2024-01-06T09:40:12;100408.09;;;-15.88;81.00
59487;BME280;45298;54.918;73.504;2024-01-06T09:42:44;100406.19;;;-15.92;81.51
59487;BME280;45298;54.918;73.504;2024-01-06T09:45:13;100402.63;;;-15.96;80.98
59487;BME280;45298;54.918;73.504;2024-01-06T09:47:43;100413.81;;;-15.92;80.67
59487;BME280;45298;54.918;73.504;2024-01-06T09:50:21;100405.81;;;-16.00;80.77
59487;BME280;45298;54.918;73.504;2024-01-06T09:52:51;100416.94;;;-15.98;81.99
59487;BME280;45298;54.918;73.504;2024-01-06T09:55:26;100425.19;;;-16.02;81.57
59487;BME280;45298;54.918;73.504;2024-01-06T09:57:55;100418.34;;;-16.03;81.15
59487;BME280;45298;54.918;73.504;2024-01-06T10:00:24;100440.44;;;-16.02;81.90
59487;BME280;45298;54.918;73.504;2024-01-06T10:02:53;100431.78;;;-16.05;82.42
59487;BME280;45298;54.918;73.504;2024-01-06T10:05:23;100426.53;;;-16.08;82.30
59487;BME280;45298;54.918;73.504;2024-01-06T10:07:52;100444.50;;;-16.05;82.59
59487;BME280;45298;54.918;73.504;2024-01-06T10:10:22;100404.16;;;-16.32;81.63
59487;BME280;45298;54.918;73.504;2024-01-06T10:12:53;100437.16;;;-16.16;82.87
59487;BME280;45298;54.918;73.504;2024-01-06T10:15:23;100450.19;;;-16.09;82.83
59487;BME280;45298;54.918;73.504;2024-01-06T10:17:54;100438.78;;;-16.18;82.19
59487;BME280;45298;54.918;73.504;2024-01-06T10:20:23;100438.78;;;-16.18;82.15
59487;BME280;45298;54.918;73.504;2024-01-06T10:22:54;100406.22;;;-16.42;82.24
59487;BME280;45298;54.918;73.504;2024-01-06T10:25:24;100452.19;;;-16.20;82.72
59487;BME280;45298;54.918;73.504;2024-01-06T10:27:53;100453.53;;;-16.27;82.67
59487;BME280;45298;54.918;73.504;2024-01-06T10:30:25;100445.69;;;-16.32;81.96
59487;BME280;45298;54.918;73.504;2024-01-06T10:32:54;100468.78;;;-16.27;82.71
59487;BME280;45298;54.918;73.504;2024-01-06T10:35:25;100463.13;;;-16.38;83.05
59487;BME280;45298;54.918;73.504;2024-01-06T10:37:54;100476.72;;;-16.37;81.70
59487;BME280;45298;54.918;73.504;2024-01-06T10:40:23;100471.47;;;-16.41;82.89
59487;BME280;45298;54.918;73.504;2024-01-06T10:42:52;100439.69;;;-16.65;82.50
59487;BME280;45298;54.918;73.504;2024-01-06T10:45:21;100469.22;;;-16.51;82.14
59487;BME280;45298;54.918;73.504;2024-01-06T10:47:52;100476.03;;;-16.50;83.11
59487;BME280;45298;54.918;73.504;2024-01-06T10:50:22;100482.53;;;-16.55;82.12
59487;BME280;45298;54.918;73.504;2024-01-06T10:52:52;100490.78;;;-16.59;82.88
59487;BME280;45298;54.918;73.504;2024-01-06T10:55:23;100486.94;;;-16.67;82.56
59487;BME280;45298;54.918;73.504;2024-01-06T10:57:54;100486.53;;;-16.75;83.37
59487;BME280;45298;54.918;73.504;2024-01-06T11:00:24;100484.53;;;-16.81;83.64
59487;BME280;45298;54.918;73.504;2024-01-06T11:02:55;100455.28;;;-17.06;83.21
59487;BME280;45298;54.918;73.504;2024-01-06T11:05:25;100501.34;;;-16.83;83.27
59487;BME280;45298;54.918;73.504;2024-01-06T11:07:55;100489.81;;;-16.93;82.62
59487;BME280;45298;54.918;73.504;2024-01-06T11:10:29;100505.88;;;-16.92;83.86
59487;BME280;45298;54.918;73.504;2024-01-06T11:13:08;100514.47;;;-16.90;83.69
59487;BME280;45298;54.918;73.504;2024-01-06T11:15:47;100494.31;;;-17.04;83.05
59487;BME280;45298;54.918;73.504;2024-01-06T11:18:37;100509.44;;;-17.05;83.69
59487;BME280;45298;54.918;73.504;2024-01-06T11:21:18;100515.22;;;-17.08;83.74
59487;BME280;45298;54.918;73.504;2024-01-06T11:24:24;100516.97;;;-17.07;83.85
59487;BME280;45298;54.918;73.504;2024-01-06T11:26:56;100517.69;;;-17.09;83.83
59487;BME280;45298;54.918;73.504;2024-01-06T11:29:25;100521.78;;;-17.11;83.60
59487;BME280;45298;54.918;73.504;2024-01-06T11:34:55;100528.66;;;-17.24;84.05
59487;BME280;45298;54.918;73.504;2024-01-06T11:37:41;100545.50;;;-17.26;84.10
59487;BME280;45298;54.918;73.504;2024-01-06T11:45:26;100541.06;;;-17.43;83.11
59487;BME280;45298;54.918;73.504;2024-01-06T11:47:59;100543.78;;;-17.40;83.26
59487;BME280;45298;54.918;73.504;2024-01-06T11:50:34;100565.81;;;-17.39;84.05
59487;BME280;45298;54.918;73.504;2024-01-06T11:53:05;100541.50;;;-17.51;83.30
59487;BME280;45298;54.918;73.504;2024-01-06T11:55:40;100546.78;;;-17.48;84.07
59487;BME280;45298;54.918;73.504;2024-01-06T11:58:11;100553.47;;;-17.48;83.64
59487;BME280;45298;54.918;73.504;2024-01-06T12:00:40;100514.97;;;-17.71;83.61
59487;BME280;45298;54.918;73.504;2024-01-06T12:03:11;100562.13;;;-17.44;83.21
59487;BME280;45298;54.918;73.504;2024-01-06T12:05:44;100556.72;;;-17.51;83.36
59487;BME280;45298;54.918;73.504;2024-01-06T12:08:19;100524.34;;;-17.70;83.68
59487;BME280;45298;54.918;73.504;2024-01-06T12:10:48;100573.94;;;-17.45;83.15
59487;BME280;45298;54.918;73.504;2024-01-06T12:13:18;100570.63;;;-17.44;82.37
59487;BME280;45298;54.918;73.504;2024-01-06T12:15:50;100579.22;;;-17.42;83.82
59487;BME280;45298;54.918;73.504;2024-01-06T12:18:19;100570.44;;;-17.47;83.70
59487;BME280;45298;54.918;73.504;2024-01-06T12:20:49;100514.06;;;-17.86;82.78
59487;BME280;45298;54.918;73.504;2024-01-06T12:23:27;100562.19;;;-17.58;82.95
59487;BME280;45298;54.918;73.504;2024-01-06T12:26:00;100574.69;;;-17.61;83.01
59487;BME280;45298;54.918;73.504;2024-01-06T12:28:35;100542.91;;;-17.84;83.25
59487;BME280;45298;54.918;73.504;2024-01-06T12:31:09;100577.66;;;-17.68;82.81
59487;BME280;45298;54.918;73.504;2024-01-06T12:33:39;100585.06;;;-17.71;83.05
59487;BME280;45298;54.918;73.504;2024-01-06T12:36:09;100590.81;;;-17.74;82.74
59487;BME280;45298;54.918;73.504;2024-01-06T12:38:53;100584.50;;;-17.81;82.60
59487;BME280;45298;54.918;73.504;2024-01-06T12:41:24;100603.22;;;-17.79;83.01
59487;BME280;45298;54.918;73.504;2024-01-06T12:43:53;100605.41;;;-17.85;82.88
59487;BME280;45298;54.918;73.504;2024-01-06T12:46:22;100597.75;;;-18.00;83.24
59487;BME280;45298;54.918;73.504;2024-01-06T12:48:53;100611.41;;;-17.98;83.03
59487;BME280;45298;54.918;73.504;2024-01-06T12:51:23;100573.03;;;-18.31;82.92
59487;BME280;45298;54.918;73.504;2024-01-06T12:53:52;100620.28;;;-18.04;82.88
59487;BME280;45298;54.918;73.504;2024-01-06T12:56:21;100597.28;;;-18.21;83.28